Lynn Center, Illinois
Current Conditions -  °F | °C
As of 1:05 AM on Sunday 23 Nov 2014 (Local Time) from KMLI Reporting Station
Overcast Overcast  
Wind Chill: 53°   Ceiling: 1500
Heat Index: 53°   Visibility: 10mi
Dew Point: 48°   Wind: 10mph
Humidity: 83%   Direction: 180°S
Pressure: 29.73"   Gusts: NA
Location:  41.3°N, 90.36°W
Report Text: KMLI 230705Z AUTO 18009KT 10SM OVC015 12/09 A2973 RMK AO2 T01170089 $
Loading
Personal Weather Stations






























Interactive Weather Map New forecast layout! Learn more

10-Day Weather Forecast

Advertisements
Track Severe Weather on mobile